createdAt,value
2022-12-29T00:01:14.718Z,43.79
2022-12-29T00:06:17.469Z,43.91
2022-12-29T00:11:21.464Z,43.73
2022-12-29T00:16:25.635Z,43.57
2022-12-29T00:21:46.018Z,43.65
2022-12-29T00:27:06.479Z,43.67
2022-12-29T00:32:28.249Z,43.68
2022-12-29T00:37:45.134Z,43.80
2022-12-29T00:43:06.023Z,43.82
2022-12-29T00:48:10.185Z,43.90
2022-12-29T00:53:12.992Z,43.84
2022-12-29T00:58:16.856Z,43.64
2022-12-29T01:03:22.134Z,43.88
2022-12-29T01:08:25.136Z,44.00
2022-12-29T01:13:27.931Z,44.26
2022-12-29T01:18:32.097Z,44.04
2022-12-29T01:23:35.841Z,44.11
2022-12-29T01:28:41.077Z,44.21
2022-12-29T01:33:45.316Z,44.24
2022-12-29T01:38:48.544Z,44.39
2022-12-29T01:43:52.404Z,44.44
2022-12-29T01:49:00.955Z,44.50
2022-12-29T01:54:04.796Z,44.45
2022-12-29T01:59:08.792Z,44.14
2022-12-29T02:04:13.062Z,44.16
2022-12-29T02:09:15.856Z,44.31
2022-12-29T02:14:21.214Z,44.02
2022-12-29T02:19:56.571Z,44.28
2022-12-29T02:25:40.190Z,44.29
2022-12-29T02:30:47.608Z,44.34
2022-12-29T02:35:54.698Z,44.44
2022-12-29T02:40:59.986Z,44.01
2022-12-29T02:46:06.698Z,43.92
2022-12-29T02:51:11.473Z,44.10
2022-12-29T02:56:14.261Z,43.91
2022-12-29T03:01:25.272Z,43.92
2022-12-29T03:06:33.269Z,43.95
2022-12-29T03:11:57.412Z,43.79
2022-12-29T03:17:02.598Z,43.77
2022-12-29T03:22:23.968Z,43.72
2022-12-29T03:27:35.630Z,43.73
2022-12-29T03:32:40.786Z,43.87
2022-12-29T03:37:45.069Z,43.95
2022-12-29T03:42:49.344Z,43.72
2022-12-29T03:47:53.604Z,43.87
2022-12-29T03:52:57.046Z,44.03
2022-12-29T03:57:59.978Z,44.05
2022-12-29T04:03:22.842Z,44.41
2022-12-29T04:08:26.652Z,44.51
2022-12-29T04:13:29.553Z,44.73
2022-12-29T04:18:33.960Z,45.10
2022-12-29T04:23:38.143Z,45.38
2022-12-29T04:28:43.456Z,45.78
2022-12-29T04:34:03.481Z,45.79
2022-12-29T04:39:07.231Z,45.91
2022-12-29T04:44:11.615Z,46.16
2022-12-29T04:49:18.410Z,46.38
2022-12-29T04:54:24.290Z,46.17
2022-12-29T04:59:35.105Z,46.58
2022-12-29T05:04:39.306Z,46.73
2022-12-29T05:09:42.821Z,46.97
2022-12-29T05:14:46.493Z,47.32
2022-12-29T05:19:50.631Z,47.38
2022-12-29T05:24:53.941Z,47.65
2022-12-29T05:29:57.048Z,47.54
2022-12-29T05:35:01.305Z,47.94
2022-12-29T05:40:06.672Z,47.94
2022-12-29T05:45:10.780Z,48.06
2022-12-29T05:50:28.663Z,48.09
2022-12-29T05:55:49.128Z,47.90
2022-12-29T06:00:53.432Z,48.01
2022-12-29T06:05:57.649Z,48.01
2022-12-29T06:11:00.548Z,47.93
2022-12-29T06:16:03.948Z,48.25
2022-12-29T06:21:08.978Z,48.20
2022-12-29T06:26:12.723Z,48.13
2022-12-29T06:31:15.595Z,48.29
2022-12-29T06:36:19.732Z,48.15
2022-12-29T06:41:26.993Z,48.51
2022-12-29T06:47:03.671Z,48.53
2022-12-29T06:52:12.721Z,48.67
2022-12-29T06:57:15.858Z,48.79
2022-12-29T07:02:20.635Z,48.88
2022-12-29T07:07:25.003Z,49.03
2022-12-29T07:12:27.983Z,49.38
2022-12-29T07:17:30.715Z,49.32
2022-12-29T07:22:34.798Z,49.44
2022-12-29T07:27:37.568Z,49.44
2022-12-29T07:32:40.335Z,49.44
2022-12-29T07:37:44.474Z,49.59
2022-12-29T07:42:47.246Z,49.72
2022-12-29T07:47:52.090Z,49.97
2022-12-29T07:52:57.396Z,49.95
2022-12-29T07:58:00.145Z,49.99
2022-12-29T08:03:02.913Z,50.04
2022-12-29T08:08:07.240Z,49.95
2022-12-29T08:13:10.475Z,49.62
2022-12-29T08:18:13.235Z,49.24
2022-12-29T08:23:17.458Z,49.33
2022-12-29T08:28:20.237Z,49.22
2022-12-29T08:33:23.060Z,49.12
2022-12-29T08:38:28.757Z,49.03
2022-12-29T08:43:31.606Z,49.22
2022-12-29T08:48:34.404Z,49.24
2022-12-29T08:53:38.499Z,49.26
2022-12-29T08:58:41.473Z,49.30
2022-12-29T09:09:08.566Z,49.32
2022-12-29T09:14:11.290Z,49.16
2022-12-29T09:19:14.261Z,49.58
2022-12-29T09:24:18.501Z,49.77
2022-12-29T09:29:21.363Z,49.80
2022-12-29T09:34:24.218Z,49.39
2022-12-29T09:39:28.383Z,49.60
2022-12-29T09:44:33.841Z,49.81
2022-12-29T09:49:40.794Z,49.71
2022-12-29T09:54:56.356Z,49.86
2022-12-29T10:00:05.438Z,50.19
2022-12-29T10:05:22.208Z,50.38
2022-12-29T10:10:33.383Z,50.34
2022-12-29T10:15:52.039Z,50.22
2022-12-29T10:20:56.255Z,50.42
2022-12-29T10:26:00.941Z,50.71
2022-12-29T10:31:08.913Z,50.73
2022-12-29T10:36:15.938Z,51.06
2022-12-29T10:41:22.546Z,50.83
2022-12-29T10:46:27.390Z,50.61
2022-12-29T10:51:32.235Z,50.66
2022-12-29T10:56:38.404Z,50.70
2022-12-29T11:01:43.897Z,50.64
2022-12-29T11:06:46.861Z,50.62
2022-12-29T11:11:51.105Z,50.06
2022-12-29T11:16:58.969Z,50.29
2022-12-29T11:22:14.799Z,51.42
2022-12-29T11:27:20.650Z,51.57
2022-12-29T11:32:28.913Z,51.95
2022-12-29T11:37:35.541Z,51.79
2022-12-29T11:42:41.259Z,53.29
2022-12-29T11:47:44.685Z,54.22
2022-12-29T11:52:47.582Z,54.84
2022-12-29T11:57:51.765Z,54.18
2022-12-29T12:02:57.666Z,53.27
2022-12-29T12:08:04.203Z,53.36
2022-12-29T12:13:13.502Z,52.84
2022-12-29T12:18:19.523Z,52.84
2022-12-29T12:23:29.389Z,52.54
2022-12-29T12:28:38.874Z,52.58
2022-12-29T12:33:43.918Z,52.06
2022-12-29T12:38:49.645Z,51.96
2022-12-29T12:43:55.147Z,43.99
2022-12-29T12:49:13.969Z,51.81
2022-12-29T12:54:25.888Z,50.96
2022-12-29T12:59:45.185Z,50.93
2022-12-29T13:05:06.115Z,50.83
2022-12-29T13:10:21.724Z,50.81
2022-12-29T13:15:35.992Z,50.80
2022-12-29T13:20:41.450Z,50.93
2022-12-29T13:25:46.982Z,51.20
2022-12-29T13:30:55.173Z,50.89
2022-12-29T13:36:01.384Z,51.23
2022-12-29T13:41:06.059Z,51.35
2022-12-29T13:46:12.124Z,51.10
2022-12-29T13:51:15.271Z,51.27
2022-12-29T13:56:21.500Z,51.23
2022-12-29T14:01:29.425Z,51.46
2022-12-29T14:06:32.678Z,51.44
2022-12-29T14:11:36.709Z,51.42
2022-12-29T14:16:42.042Z,51.90
2022-12-29T14:21:52.653Z,51.97
2022-12-29T14:26:55.447Z,45.60
2022-12-29T14:31:59.688Z,49.70
2022-12-29T14:37:02.817Z,50.04
2022-12-29T14:42:06.537Z,49.99
2022-12-29T14:47:10.804Z,49.84
2022-12-29T14:52:17.251Z,49.85
2022-12-29T14:57:35.544Z,49.84
2022-12-29T15:02:41.971Z,50.06
2022-12-29T15:07:44.863Z,50.26
2022-12-29T15:12:49.691Z,50.22
2022-12-29T15:17:53.966Z,50.45
2022-12-29T15:22:58.296Z,50.44
2022-12-29T15:28:03.204Z,50.35
2022-12-29T15:33:19.460Z,50.40
2022-12-29T15:38:31.144Z,50.15
2022-12-29T15:43:46.892Z,50.21
2022-12-29T15:48:51.400Z,50.06
2022-12-29T15:53:54.560Z,50.19
2022-12-29T15:58:57.312Z,50.18
2022-12-29T16:04:01.551Z,49.81
2022-12-29T16:09:05.545Z,50.16
2022-12-29T16:14:09.751Z,50.13
2022-12-29T16:19:15.418Z,49.89
2022-12-29T16:24:20.171Z,50.17
2022-12-29T16:29:23.153Z,50.07
2022-12-29T16:34:28.776Z,49.88
2022-12-29T16:39:38.013Z,49.88
2022-12-29T16:44:40.852Z,49.63
2022-12-29T16:49:47.057Z,50.02
2022-12-29T16:54:52.089Z,50.19
2022-12-29T16:59:56.265Z,50.24
2022-12-29T17:05:00.383Z,50.24
2022-12-29T17:10:03.227Z,50.16
2022-12-29T17:15:09.230Z,50.25
2022-12-29T17:20:17.231Z,50.69
2022-12-29T17:25:21.010Z,50.63
2022-12-29T17:30:29.677Z,50.81
2022-12-29T17:35:37.358Z,50.74
2022-12-29T17:40:40.282Z,50.82
2022-12-29T17:45:43.331Z,50.87
2022-12-29T17:50:47.764Z,51.00
2022-12-29T17:55:50.507Z,51.02
2022-12-29T18:00:54.831Z,51.09
2022-12-29T18:05:59.223Z,50.93
2022-12-29T18:11:02.120Z,51.27
2022-12-29T18:16:05.622Z,51.20
2022-12-29T18:21:12.769Z,51.27
2022-12-29T18:26:20.885Z,51.57
2022-12-29T18:31:29.209Z,51.70
2022-12-29T18:36:33.413Z,51.72
2022-12-29T18:41:36.195Z,51.87
2022-12-29T18:46:40.474Z,51.75
2022-12-29T18:51:44.650Z,51.86
2022-12-29T18:56:47.420Z,51.90
2022-12-29T19:01:50.285Z,52.13
2022-12-29T19:06:54.461Z,52.03
2022-12-29T19:11:57.247Z,52.16
2022-12-29T19:17:00.663Z,51.93
2022-12-29T19:22:04.772Z,52.11
2022-12-29T19:27:07.557Z,52.16
2022-12-29T19:32:10.282Z,51.96
2022-12-29T19:37:14.505Z,52.11
2022-12-29T19:42:17.326Z,52.08
2022-12-29T19:47:21.058Z,52.23
2022-12-29T19:52:26.155Z,52.17
2022-12-29T19:57:28.941Z,52.12
2022-12-29T20:02:33.901Z,52.41
2022-12-29T20:07:38.335Z,51.83
2022-12-29T20:12:41.194Z,51.42
2022-12-29T20:18:12.596Z,51.30
2022-12-29T20:23:08.209Z,50.78
2022-12-29T20:28:10.983Z,50.49
2022-12-29T20:33:13.778Z,49.97
2022-12-29T20:38:17.939Z,49.87
2022-12-29T20:43:20.739Z,49.61
2022-12-29T20:48:23.475Z,49.26
2022-12-29T20:53:27.796Z,49.19
2022-12-29T20:58:30.905Z,48.84
2022-12-29T21:03:33.781Z,48.71
2022-12-29T21:08:38.544Z,48.48
2022-12-29T21:13:41.339Z,48.23
2022-12-29T21:18:44.117Z,47.95
2022-12-29T21:23:48.413Z,47.68
2022-12-29T21:28:51.188Z,47.81
2022-12-29T21:33:54.094Z,47.63
2022-12-29T21:38:59.101Z,47.37
2022-12-29T21:44:19.250Z,46.99
2022-12-29T21:49:23.840Z,46.70
2022-12-29T21:54:46.531Z,46.59
2022-12-29T22:00:07.097Z,46.76
2022-12-29T22:05:30.275Z,46.61
2022-12-29T22:10:52.177Z,46.65
2022-12-29T22:15:55.427Z,46.76
2022-12-29T22:20:58.563Z,46.47
2022-12-29T22:26:06.703Z,46.50
2022-12-29T22:31:25.226Z,46.50
2022-12-29T22:36:29.366Z,46.34
2022-12-29T22:41:34.841Z,46.30
2022-12-29T22:46:37.681Z,46.41
2022-12-29T22:51:40.630Z,46.51
2022-12-29T22:56:44.791Z,46.25
2022-12-29T23:01:47.729Z,46.26
2022-12-29T23:06:50.696Z,46.24
2022-12-29T23:11:55.047Z,46.13
2022-12-29T23:16:58.029Z,46.05
2022-12-29T23:22:00.922Z,46.16
2022-12-29T23:27:05.261Z,46.08
2022-12-29T23:32:08.203Z,46.23
2022-12-29T23:37:11.465Z,45.95
2022-12-29T23:42:15.777Z,45.92
2022-12-29T23:47:18.871Z,45.87
2022-12-29T23:52:21.886Z,45.85
2022-12-29T23:57:26.178Z,45.88
